Pagrindinis puslapis
METAR-TAF:

METAR-TAF

Oro uostai :

Washington, Virdžinija, Jungtinės Amerikos Valstijos

platuma: 38-56-05N, ilguma: 077-26-51W, Aukštis: 95 m

Dabartinis oras

Ataskaita buvo paskelbta 21 minutes, ne 00:52 UTC
Vėjas 4 kt iš Pietų/Pietryčių
Temperatūra 17°C
Drėgmė 42%
Slėgis 1026 hPa
Matomumas: 16.1 km
Giedras dangus

METAR: KIAD 200052Z 15004KT 10SM CLR 17/04 A3030 RMK AO2 SLP259 T01670044

Laikas: 21:13 (01:13 UTC)

Prognozė

Ataskaita buvo paskelbta 1 valandą ir 53 minutes, ne 23:20 UTC
Prognozė galioja nuo 20 metu 00 UTC su 21 metu 06 UTC
Vėjas 3 kt nuo kintamojo kryptimis
Matomumas: 10 km
Mažai debesys ne aukštis 25000 ft
Nuo 20 metu 1500 UTC
Vėjas 5 kt iš Pietvakarių
Matomumas: 10 km
Mažai debesys ne aukštis 25000 ft
Nuo 20 metu 2300 UTC
Vėjas 3 kt nuo kintamojo kryptimis
Matomumas: 10 km
Mažai debesys ne aukštis 25000 ft

TAF: KIAD 192320Z 2000/2106 VRB03KT P6SM FEW250 FM201500 23005KT P6SM FEW250 FM202300 VRB03KT P6SM FEW250

Orai ataskaitas ir orų prognozės (METAR, TAF).

turimą stotys yra geltonos ir raudonos taškus žemėlapyje.

Perkelti pele per norėdami pamatyti stoties vardą.

Tada spustelėkite, norėdami matyti oro stebėjimo ir prognozės.

Norėdami pakeisti žemėlapį: spustelėkite ant žalios mygtukų su juodo kryžiaus žemyn,; žalią mygtuką su brūkšneliu, jei norite nutolinti; arba žalių rodyklių gretimoms žemėlapius.


METAR-TAF: